createdAt,value
2018-07-06T00:01:55.333Z,3.25
2018-07-06T00:04:34.663Z,3.07
2018-07-06T00:07:15.710Z,4.62
2018-07-06T00:09:55.227Z,2.67
2018-07-06T00:12:34.540Z,3.47
2018-07-06T00:15:15.501Z,3.22
2018-07-06T00:17:55.212Z,2.43
2018-07-06T00:20:34.552Z,2.93
2018-07-06T00:23:15.484Z,2.92
2018-07-06T00:25:55.061Z,3.42
2018-07-06T00:28:34.648Z,3.43
2018-07-06T00:31:15.738Z,3.37
2018-07-06T00:33:55.364Z,3.07
2018-07-06T00:36:34.868Z,3.63
2018-07-06T00:39:15.646Z,3.12
2018-07-06T00:41:55.413Z,3.60
2018-07-06T00:44:34.861Z,3.13
2018-07-06T00:47:15.718Z,3.60
2018-07-06T00:49:55.355Z,4.53
2018-07-06T00:52:34.693Z,3.50
2018-07-06T00:55:15.267Z,4.20
2018-07-06T00:57:54.836Z,3.63
2018-07-06T01:00:34.160Z,4.20
2018-07-06T01:03:13.796Z,3.63
2018-07-06T01:05:53.304Z,4.77
2018-07-06T01:08:32.752Z,3.97
2018-07-06T01:11:12.373Z,4.50
2018-07-06T01:13:51.800Z,5.00
2018-07-06T01:16:31.464Z,3.60
2018-07-06T01:19:11.304Z,4.10
2018-07-06T01:21:50.768Z,3.93
2018-07-06T01:24:30.540Z,4.00
2018-07-06T01:27:10.551Z,3.83
2018-07-06T01:29:50.397Z,4.50
2018-07-06T01:32:29.825Z,4.00
2018-07-06T01:35:09.448Z,4.70
2018-07-06T01:37:48.853Z,4.10
2018-07-06T01:40:28.637Z,5.80
2018-07-06T01:43:08.436Z,4.80
2018-07-06T01:45:47.856Z,4.57
2018-07-06T01:48:27.668Z,4.40
2018-07-06T01:51:07.470Z,5.50
2018-07-06T01:53:47.161Z,4.83
2018-07-06T01:56:26.885Z,5.33
2018-07-06T01:59:06.610Z,4.97
2018-07-06T02:01:46.234Z,4.95
2018-07-06T02:04:25.595Z,4.40
2018-07-06T02:07:05.388Z,6.07
2018-07-06T02:09:44.877Z,4.40
2018-07-06T02:12:24.515Z,5.95
2018-07-06T02:15:04.297Z,4.60
2018-07-06T02:17:43.617Z,5.17
2018-07-06T02:20:23.541Z,4.05
2018-07-06T02:23:03.609Z,7.67
2018-07-06T02:25:43.237Z,5.33
2018-07-06T02:28:22.678Z,5.47
2018-07-06T02:31:02.419Z,7.70
2018-07-06T02:33:41.888Z,7.70
2018-07-06T02:36:21.712Z,5.75
2018-07-06T02:39:01.393Z,4.90
2018-07-06T02:41:40.785Z,5.40
2018-07-06T02:44:20.401Z,4.60
2018-07-06T02:47:00.262Z,5.13
2018-07-06T02:49:39.764Z,4.90
2018-07-06T02:52:19.428Z,5.50
2018-07-06T02:54:59.257Z,5.27
2018-07-06T02:57:38.943Z,6.23
2018-07-06T03:00:18.927Z,5.57
2018-07-06T03:02:58.440Z,5.87
2018-07-06T03:05:37.955Z,5.77
2018-07-06T03:08:17.796Z,6.00
2018-07-06T03:10:57.605Z,6.25
2018-07-06T03:13:37.125Z,8.00
2018-07-06T03:16:16.757Z,6.23
2018-07-06T03:18:56.632Z,8.93
2018-07-06T03:21:35.918Z,7.30
2018-07-06T03:24:15.820Z,6.93
2018-07-06T03:26:55.546Z,7.50
2018-07-06T03:29:34.925Z,8.50
2018-07-06T03:32:15.881Z,8.74
2018-07-06T03:34:55.576Z,8.35
2018-07-06T03:37:35.033Z,6.70
2018-07-06T03:40:15.701Z,9.20
2018-07-06T03:42:55.188Z,8.73
2018-07-06T03:45:34.570Z,8.33
2018-07-06T03:48:14.121Z,9.47
2018-07-06T03:50:53.573Z,9.50
2018-07-06T03:53:33.141Z,13.00
2018-07-06T03:56:12.884Z,9.90
2018-07-06T03:58:52.697Z,7.15
2018-07-06T04:01:32.060Z,10.00
2018-07-06T04:04:11.658Z,12.33
2018-07-06T04:06:51.271Z,11.20
2018-07-06T04:09:30.815Z,12.70
2018-07-06T04:12:10.665Z,10.20
2018-07-06T04:14:50.362Z,12.40
2018-07-06T04:17:30.167Z,13.00
2018-07-06T04:20:09.894Z,15.50
2018-07-06T04:22:49.657Z,12.53
2018-07-06T04:25:29.189Z,15.83
2018-07-06T04:28:08.797Z,16.63
2018-07-06T04:30:48.468Z,11.97
2018-07-06T04:33:28.273Z,13.10
2018-07-06T04:36:07.945Z,12.90
2018-07-06T04:38:47.646Z,13.70
2018-07-06T04:41:27.453Z,11.47
2018-07-06T04:44:07.025Z,11.57
2018-07-06T04:46:46.824Z,12.30
2018-07-06T04:49:26.292Z,11.57
2018-07-06T04:52:06.005Z,12.67
2018-07-06T04:54:45.864Z,11.78
2018-07-06T04:57:25.866Z,13.85
2018-07-06T05:00:05.193Z,13.43
2018-07-06T05:02:44.672Z,10.50
2018-07-06T05:05:24.340Z,13.03
2018-07-06T05:08:03.721Z,12.97
2018-07-06T05:10:43.212Z,16.90
2018-07-06T05:13:22.908Z,13.58
2018-07-06T05:16:02.369Z,13.07
2018-07-06T05:18:41.793Z,12.90
2018-07-06T05:21:21.645Z,14.87
2018-07-06T05:24:01.124Z,10.90
2018-07-06T05:26:40.751Z,10.17
2018-07-06T05:29:20.157Z,11.20
2018-07-06T05:31:59.976Z,9.50
2018-07-06T05:34:40.209Z,11.60
2018-07-06T05:37:19.873Z,12.47
2018-07-06T05:40:00.066Z,10.10
2018-07-06T05:42:39.731Z,11.90
2018-07-06T05:45:19.650Z,10.23
2018-07-06T05:47:59.018Z,11.50
2018-07-06T05:50:38.926Z,10.13
2018-07-06T05:53:18.396Z,10.97
2018-07-06T05:55:58.104Z,12.07
2018-07-06T05:58:37.484Z,9.23
2018-07-06T06:01:17.211Z,9.57
2018-07-06T06:03:57.049Z,10.23
2018-07-06T06:06:36.437Z,8.53
2018-07-06T06:09:04.849Z,7.60
2018-07-06T06:11:33.284Z,10.37
2018-07-06T06:14:01.668Z,8.98
2018-07-06T06:16:29.802Z,8.53
2018-07-06T06:18:58.199Z,8.50
2018-07-06T06:21:26.833Z,7.62
2018-07-06T06:23:55.016Z,8.13
2018-07-06T06:26:28.609Z,9.93
2018-07-06T06:28:57.141Z,7.33
2018-07-06T06:31:26.413Z,7.47
2018-07-06T06:33:55.183Z,7.23
2018-07-06T06:36:23.916Z,7.00
2018-07-06T06:38:52.013Z,7.73
2018-07-06T06:41:20.546Z,7.87
2018-07-06T06:43:49.536Z,8.13
2018-07-06T06:46:17.926Z,6.85
2018-07-06T06:48:46.062Z,9.30
2018-07-06T06:51:14.236Z,8.43
2018-07-06T06:53:42.864Z,8.00
2018-07-06T06:56:11.374Z,7.45
2018-07-06T06:58:40.235Z,8.80
2018-07-06T07:01:08.932Z,8.50
2018-07-06T07:03:37.256Z,8.77
2018-07-06T07:06:05.645Z,8.23
2018-07-06T07:08:34.017Z,8.10
2018-07-06T07:11:02.461Z,9.80
2018-07-06T07:13:31.629Z,8.10
2018-07-06T07:15:59.944Z,9.43
2018-07-06T07:18:28.097Z,9.77
2018-07-06T07:20:56.852Z,9.83
2018-07-06T07:23:25.269Z,9.40
2018-07-06T07:25:54.215Z,9.27
2018-07-06T07:28:22.569Z,9.40
2018-07-06T07:30:50.776Z,9.37
2018-07-06T07:33:19.148Z,9.67
2018-07-06T07:35:47.632Z,11.13
2018-07-06T07:38:16.617Z,11.13
2018-07-06T07:40:45.317Z,9.60
2018-07-06T07:43:13.425Z,9.73
2018-07-06T07:45:42.136Z,9.53
2018-07-06T07:48:10.577Z,9.95
2018-07-06T07:50:49.005Z,12.23
2018-07-06T07:53:28.557Z,10.00
2018-07-06T07:55:56.960Z,10.50
2018-07-06T07:58:25.525Z,11.00
2018-07-06T08:00:54.377Z,10.67
2018-07-06T08:03:23.116Z,11.45
2018-07-06T08:05:51.749Z,10.57
2018-07-06T08:08:20.141Z,10.97
2018-07-06T08:10:48.236Z,11.20
2018-07-06T08:13:16.917Z,10.57
2018-07-06T08:15:45.349Z,10.53
2018-07-06T08:18:13.799Z,10.75
2018-07-06T08:20:42.469Z,9.50
2018-07-06T08:23:10.936Z,10.90
2018-07-06T08:25:39.802Z,10.63
2018-07-06T08:28:08.309Z,10.20
2018-07-06T08:30:37.272Z,10.90
2018-07-06T08:33:05.772Z,9.97
2018-07-06T08:35:45.421Z,11.33
2018-07-06T08:38:13.549Z,9.37
2018-07-06T08:40:42.556Z,9.30
2018-07-06T08:43:11.347Z,8.45
2018-07-06T08:45:40.256Z,7.12
2018-07-06T08:48:09.486Z,7.27
2018-07-06T08:50:37.573Z,5.90
2018-07-06T08:53:06.546Z,6.97
2018-07-06T08:55:35.269Z,4.80
2018-07-06T08:58:03.389Z,3.70
2018-07-06T09:00:32.545Z,4.37
2018-07-06T09:03:00.669Z,5.53
2018-07-06T09:05:29.642Z,5.00
2018-07-06T09:07:58.432Z,5.97
2018-07-06T09:10:26.869Z,7.37
2018-07-06T09:12:55.401Z,7.97
2018-07-06T09:15:24.333Z,5.30
2018-07-06T09:17:52.793Z,5.40
2018-07-06T09:20:21.510Z,6.72
2018-07-06T09:22:50.677Z,4.60
2018-07-06T09:25:19.763Z,6.12
2018-07-06T09:27:48.417Z,4.50
2018-07-06T09:30:17.157Z,5.40
2018-07-06T09:32:45.765Z,5.07
2018-07-06T09:35:14.714Z,5.78
2018-07-06T09:37:43.459Z,4.57
2018-07-06T09:40:11.976Z,4.12
2018-07-06T09:42:40.516Z,6.73
2018-07-06T09:45:09.226Z,3.23
2018-07-06T09:47:37.656Z,3.83
2018-07-06T09:50:06.629Z,5.03
2018-07-06T09:52:35.372Z,4.63
2018-07-06T09:55:04.128Z,3.97
2018-07-06T09:57:32.221Z,4.13
2018-07-06T10:00:00.596Z,7.87
2018-07-06T10:02:28.701Z,4.73
2018-07-06T10:04:56.811Z,5.67
2018-07-06T10:07:25.495Z,4.90
2018-07-06T10:09:54.200Z,4.33
2018-07-06T10:12:23.080Z,4.30
2018-07-06T10:14:51.604Z,4.70
2018-07-06T10:17:20.069Z,4.23
2018-07-06T10:19:48.294Z,5.17
2018-07-06T10:22:16.996Z,4.37
2018-07-06T10:24:45.617Z,4.70
2018-07-06T10:27:14.350Z,4.33
2018-07-06T10:29:52.408Z,4.60
2018-07-06T10:32:24.976Z,4.73
2018-07-06T10:34:53.308Z,4.20
2018-07-06T10:37:21.844Z,4.15
2018-07-06T10:39:51.079Z,4.60
2018-07-06T10:42:19.474Z,4.83
2018-07-06T10:44:47.909Z,6.50
2018-07-06T10:47:16.646Z,6.70
2018-07-06T10:49:45.326Z,5.05
2018-07-06T10:52:14.949Z,3.75
2018-07-06T10:54:44.002Z,4.60
2018-07-06T10:57:12.722Z,4.43
2018-07-06T10:59:41.177Z,5.33
2018-07-06T11:02:09.750Z,4.42
2018-07-06T11:04:38.349Z,4.27
2018-07-06T11:07:07.013Z,4.17
2018-07-06T11:09:35.419Z,4.50
2018-07-06T11:12:03.810Z,4.80
2018-07-06T11:14:32.705Z,5.43
2018-07-06T11:17:00.817Z,5.17
2018-07-06T11:19:29.674Z,4.50
2018-07-06T11:21:57.777Z,4.67
2018-07-06T11:24:26.369Z,4.83
2018-07-06T11:26:55.009Z,4.90
2018-07-06T11:29:23.645Z,4.62
2018-07-06T11:31:52.096Z,4.60
2018-07-06T11:34:20.940Z,7.70
2018-07-06T11:36:49.056Z,3.80
2018-07-06T11:39:17.668Z,4.10
2018-07-06T11:41:45.801Z,4.30
2018-07-06T11:44:13.892Z,4.03
2018-07-06T11:46:42.321Z,5.20
2018-07-06T11:49:10.716Z,4.50
2018-07-06T11:51:38.857Z,7.53
2018-07-06T11:54:07.304Z,3.20
2018-07-06T11:56:35.796Z,3.60
2018-07-06T11:59:04.250Z,4.93
2018-07-06T12:01:32.803Z,4.00
2018-07-06T12:04:01.123Z,4.23
2018-07-06T12:06:29.618Z,4.93
2018-07-06T12:08:57.917Z,5.63
2018-07-06T12:11:26.365Z,3.70
2018-07-06T12:13:54.769Z,4.50
2018-07-06T12:16:23.476Z,3.50
2018-07-06T12:18:52.022Z,3.17
2018-07-06T12:21:21.039Z,3.98
2018-07-06T12:23:49.545Z,4.30
2018-07-06T12:26:18.096Z,3.37
2018-07-06T12:28:46.537Z,4.10
2018-07-06T12:31:15.288Z,5.03
2018-07-06T12:33:43.997Z,3.43
2018-07-06T12:36:12.922Z,4.80
2018-07-06T12:38:41.398Z,4.10
2018-07-06T12:41:10.243Z,3.37
2018-07-06T12:43:38.564Z,4.83
2018-07-06T12:46:07.365Z,3.20
2018-07-06T12:48:36.038Z,3.33
2018-07-06T12:51:06.050Z,4.10
2018-07-06T12:53:34.541Z,3.73
2018-07-06T12:56:03.180Z,3.63
2018-07-06T12:58:31.949Z,2.87
2018-07-06T13:01:00.485Z,3.03
2018-07-06T13:03:28.685Z,2.60
2018-07-06T13:05:56.783Z,2.77
2018-07-06T13:08:25.231Z,4.03
2018-07-06T13:10:54.269Z,3.03
2018-07-06T13:13:23.203Z,2.67
2018-07-06T13:15:51.572Z,2.77
2018-07-06T13:18:20.065Z,2.53
2018-07-06T13:20:48.951Z,2.20
2018-07-06T13:23:17.852Z,3.73
2018-07-06T13:25:46.362Z,3.87
2018-07-06T13:28:15.505Z,2.67
2018-07-06T13:30:43.753Z,2.63
2018-07-06T13:33:11.892Z,3.53
2018-07-06T13:35:40.069Z,4.43
2018-07-06T13:38:08.179Z,2.30
2018-07-06T13:40:36.909Z,2.55
2018-07-06T13:43:06.553Z,4.17
2018-07-06T13:45:35.443Z,2.50
2018-07-06T13:48:03.809Z,2.80
2018-07-06T13:50:32.252Z,7.33
2018-07-06T13:53:00.866Z,2.93
2018-07-06T13:55:30.089Z,3.27
2018-07-06T13:57:58.725Z,2.23
2018-07-06T14:00:27.368Z,3.57
2018-07-06T14:02:56.120Z,2.53
2018-07-06T14:05:24.792Z,4.70
2018-07-06T14:07:53.237Z,5.03
2018-07-06T14:10:21.315Z,3.12
2018-07-06T14:12:49.701Z,2.77
2018-07-06T14:15:18.430Z,3.00
2018-07-06T14:17:47.116Z,3.73
2018-07-06T14:20:15.933Z,3.20
2018-07-06T14:22:44.108Z,3.00
2018-07-06T14:25:12.685Z,2.17
2018-07-06T14:27:41.150Z,2.07
2018-07-06T14:30:09.852Z,2.70
2018-07-06T14:32:38.300Z,2.90
2018-07-06T14:35:06.745Z,5.30
2018-07-06T14:37:35.281Z,3.33
2018-07-06T14:40:03.713Z,4.43
2018-07-06T14:42:32.270Z,2.77
2018-07-06T14:45:01.181Z,3.33
2018-07-06T14:47:29.665Z,3.53
2018-07-06T14:49:58.225Z,1.70
2018-07-06T14:52:26.902Z,1.90
2018-07-06T14:54:55.573Z,1.90
2018-07-06T14:57:24.432Z,1.82
2018-07-06T14:59:53.545Z,2.30
2018-07-06T15:02:22.633Z,3.05
2018-07-06T15:04:51.185Z,2.07
2018-07-06T15:07:19.277Z,2.10
2018-07-06T15:09:47.696Z,3.80
2018-07-06T15:12:16.423Z,4.62
2018-07-06T15:14:45.408Z,1.83
2018-07-06T15:17:13.726Z,1.80
2018-07-06T15:19:42.369Z,3.80
2018-07-06T15:22:10.708Z,1.90
2018-07-06T15:24:39.635Z,4.30
2018-07-06T15:27:08.636Z,3.70
2018-07-06T15:29:37.052Z,2.13
2018-07-06T15:32:06.397Z,2.30
2018-07-06T15:34:34.828Z,2.13
2018-07-06T15:37:03.273Z,1.47
2018-07-06T15:39:31.709Z,0.90
2018-07-06T15:42:00.569Z,1.30
2018-07-06T15:44:29.263Z,4.80
2018-07-06T15:46:57.564Z,3.53
2018-07-06T15:49:26.379Z,1.43
2018-07-06T15:51:54.812Z,2.30
2018-07-06T15:54:23.537Z,2.63
2018-07-06T15:56:51.965Z,2.33
2018-07-06T15:59:20.665Z,1.97
2018-07-06T16:01:49.326Z,1.83
2018-07-06T16:04:18.041Z,2.53
2018-07-06T16:06:46.157Z,2.80
2018-07-06T16:09:14.529Z,1.56
2018-07-06T16:11:42.958Z,3.20
2018-07-06T16:14:11.755Z,2.80
2018-07-06T16:16:40.124Z,1.30
2018-07-06T16:19:08.418Z,1.30
2018-07-06T16:21:37.085Z,3.53
2018-07-06T16:24:06.524Z,2.70
2018-07-06T16:26:34.967Z,2.10
2018-07-06T16:29:03.937Z,2.20
2018-07-06T16:31:32.472Z,3.90
2018-07-06T16:34:01.435Z,2.12
2018-07-06T16:36:29.977Z,1.77
2018-07-06T16:38:58.918Z,1.63
2018-07-06T16:41:27.568Z,4.67
2018-07-06T16:43:55.721Z,2.90
2018-07-06T16:46:24.297Z,1.52
2018-07-06T16:48:52.748Z,2.07
2018-07-06T16:51:21.168Z,2.85
2018-07-06T16:53:49.853Z,1.90
2018-07-06T16:56:18.932Z,3.60
2018-07-06T16:58:47.633Z,1.67
2018-07-06T17:01:16.492Z,3.37
2018-07-06T17:03:44.600Z,3.13
2018-07-06T17:06:12.976Z,3.30
2018-07-06T17:08:41.580Z,4.10
2018-07-06T17:11:10.265Z,1.93
2018-07-06T17:13:38.696Z,1.03
2018-07-06T17:16:07.461Z,2.55
2018-07-06T17:18:35.562Z,1.67
2018-07-06T17:21:03.943Z,1.70
2018-07-06T17:23:32.933Z,1.47
2018-07-06T17:26:01.726Z,1.40
2018-07-06T17:28:30.188Z,2.73
2018-07-06T17:30:58.534Z,3.57
2018-07-06T17:33:26.971Z,2.50
2018-07-06T17:35:55.389Z,2.90
2018-07-06T17:38:24.002Z,2.40
2018-07-06T17:40:52.629Z,2.83
2018-07-06T17:43:21.297Z,3.03
2018-07-06T17:45:49.460Z,1.67
2018-07-06T17:48:18.101Z,3.27
2018-07-06T17:50:46.622Z,2.70
2018-07-06T17:53:15.051Z,1.90
2018-07-06T17:55:43.805Z,0.97
2018-07-06T17:58:12.532Z,5.37
2018-07-06T18:00:41.149Z,3.33
2018-07-06T18:03:09.534Z,2.00
2018-07-06T18:05:37.661Z,2.03
2018-07-06T18:08:07.041Z,3.20
2018-07-06T18:10:35.664Z,1.73
2018-07-06T18:13:03.752Z,3.50
2018-07-06T18:15:32.173Z,4.57
2018-07-06T18:18:00.709Z,2.60
2018-07-06T18:20:29.040Z,2.77
2018-07-06T18:22:57.453Z,1.30
2018-07-06T18:25:26.341Z,1.93
2018-07-06T18:27:54.430Z,4.07
2018-07-06T18:30:22.848Z,2.23
2018-07-06T18:32:51.185Z,3.63
2018-07-06T18:35:19.842Z,2.02
2018-07-06T18:37:48.005Z,1.50
2018-07-06T18:40:16.693Z,3.50
2018-07-06T18:42:45.059Z,4.63
2018-07-06T18:45:13.656Z,3.60
2018-07-06T18:47:42.184Z,3.23
2018-07-06T18:50:11.011Z,4.10
2018-07-06T18:52:39.416Z,4.77
2018-07-06T18:55:07.678Z,1.20
2018-07-06T18:57:36.112Z,1.07
2018-07-06T19:00:04.541Z,0.87
2018-07-06T19:02:32.969Z,1.90
2018-07-06T19:05:01.418Z,2.90
2018-07-06T19:07:29.877Z,1.07
2018-07-06T19:09:58.457Z,2.30
2018-07-06T19:12:26.677Z,2.03
2018-07-06T19:14:55.374Z,2.50
2018-07-06T19:17:24.065Z,1.40
2018-07-06T19:19:53.532Z,2.25
2018-07-06T19:22:21.777Z,1.33
2018-07-06T19:24:50.246Z,2.40
2018-07-06T19:27:18.722Z,2.80
2018-07-06T19:29:47.272Z,1.60
2018-07-06T19:32:16.058Z,1.37
2018-07-06T19:34:44.513Z,1.10
2018-07-06T19:37:13.137Z,2.63
2018-07-06T19:39:41.785Z,1.20
2018-07-06T19:42:10.197Z,1.83
2018-07-06T19:44:39.021Z,4.75
2018-07-06T19:47:07.989Z,4.62
2018-07-06T19:49:36.107Z,3.27
2018-07-06T19:52:04.554Z,3.33
2018-07-06T19:54:33.172Z,1.20
2018-07-06T19:57:02.989Z,2.00
2018-07-06T19:59:31.626Z,1.73
2018-07-06T20:02:00.070Z,0.83
2018-07-06T20:04:28.179Z,2.93
2018-07-06T20:06:56.874Z,1.17
2018-07-06T20:09:25.337Z,3.60
2018-07-06T20:11:53.968Z,2.93
2018-07-06T20:14:22.406Z,3.03
2018-07-06T20:16:51.008Z,2.33
2018-07-06T20:19:19.147Z,1.43
2018-07-06T20:21:48.001Z,3.03
2018-07-06T20:24:16.437Z,1.55
2018-07-06T20:26:44.761Z,3.00
2018-07-06T20:29:13.473Z,7.47
2018-07-06T20:31:42.204Z,3.77
2018-07-06T20:34:10.925Z,4.30
2018-07-06T20:36:39.429Z,8.63
2018-07-06T20:39:07.952Z,1.33
2018-07-06T20:41:36.073Z,4.63
2018-07-06T20:44:04.528Z,4.10
2018-07-06T20:46:33.095Z,1.77
2018-07-06T20:49:01.526Z,1.63
2018-07-06T20:51:30.747Z,4.53
2018-07-06T20:53:59.246Z,2.00
2018-07-06T20:56:28.061Z,2.30
2018-07-06T20:58:56.484Z,2.33
2018-07-06T21:01:25.237Z,3.20
2018-07-06T21:03:54.084Z,2.12
2018-07-06T21:06:22.568Z,1.95
2018-07-06T21:08:51.141Z,2.30
2018-07-06T21:11:19.265Z,1.00
2018-07-06T21:13:47.739Z,1.97
2018-07-06T21:16:16.201Z,3.43
2018-07-06T21:18:44.597Z,2.45
2018-07-06T21:21:13.159Z,4.25
2018-07-06T21:23:41.284Z,2.00
2018-07-06T21:26:09.721Z,1.73
2018-07-06T21:28:38.188Z,4.53
2018-07-06T21:31:07.096Z,1.85
2018-07-06T21:33:36.045Z,1.90
2018-07-06T21:36:04.498Z,4.03
2018-07-06T21:38:33.237Z,2.67
2018-07-06T21:41:01.661Z,1.20
2018-07-06T21:43:30.201Z,1.23
2018-07-06T21:45:58.849Z,1.43
2018-07-06T21:48:26.977Z,1.00
2018-07-06T21:50:55.065Z,2.33
2018-07-06T21:53:23.840Z,1.00
2018-07-06T21:55:52.121Z,3.80
2018-07-06T21:58:20.244Z,2.40
2018-07-06T22:00:48.684Z,1.90
2018-07-06T22:03:17.481Z,2.95
2018-07-06T22:05:45.873Z,2.50
2018-07-06T22:08:14.549Z,2.20
2018-07-06T22:10:43.307Z,4.23
2018-07-06T22:13:11.676Z,3.20
2018-07-06T22:15:45.353Z,6.37
2018-07-06T22:18:15.278Z,2.25
2018-07-06T22:20:44.545Z,2.70
2018-07-06T22:23:13.260Z,2.33
2018-07-06T22:25:41.369Z,3.50
2018-07-06T22:28:09.712Z,2.37
2018-07-06T22:30:38.204Z,4.23
2018-07-06T22:33:07.544Z,3.70
2018-07-06T22:35:36.320Z,2.10
2018-07-06T22:38:04.500Z,2.13
2018-07-06T22:40:33.264Z,2.20
2018-07-06T22:43:01.710Z,5.37
2018-07-06T22:45:30.349Z,3.90
2018-07-06T22:47:58.801Z,3.13
2018-07-06T22:50:26.908Z,3.90
2018-07-06T22:52:55.368Z,4.27
2018-07-06T22:55:23.825Z,2.85
2018-07-06T22:57:52.139Z,3.50
2018-07-06T23:00:20.266Z,4.33
2018-07-06T23:02:48.749Z,1.10
2018-07-06T23:05:18.766Z,3.08
2018-07-06T23:07:47.149Z,7.93
2018-07-06T23:10:15.377Z,3.47
2018-07-06T23:12:43.667Z,3.87
2018-07-06T23:15:12.219Z,1.55
2018-07-06T23:17:40.308Z,3.93
2018-07-06T23:20:08.934Z,3.67
2018-07-06T23:22:47.157Z,2.50
2018-07-06T23:25:15.602Z,2.80
2018-07-06T23:27:44.139Z,5.78
2018-07-06T23:30:12.853Z,5.00
2018-07-06T23:32:41.849Z,6.30
2018-07-06T23:35:10.557Z,2.30
2018-07-06T23:37:38.992Z,1.73
2018-07-06T23:40:07.762Z,6.40
2018-07-06T23:42:36.400Z,3.10
2018-07-06T23:45:04.545Z,10.40
2018-07-06T23:47:33.161Z,5.60
2018-07-06T23:50:01.262Z,2.73
2018-07-06T23:52:29.414Z,4.13
2018-07-06T23:54:57.839Z,3.23
2018-07-06T23:57:26.452Z,5.93
2018-07-06T23:59:55.238Z,5.27
